KDTL/DTL METAR and TAF weather

Enter ICAO airport designator
Station Type Date Time Source
KDTL METAR 2019/06/18 12:36 UTC NOAA

KDTL 181236Z AUTO 33004KT 10SM OVC048 13/12 A3002 RMK AO2


Station Type Date Time Source
KDTL Decoded METAR 2019/06/18 12:36 UTC NOAA

Detroit Lakes, Detroit Lakes Airport-Wething Field, MN, United States (KDTL) 46-50N 095-53W
Jun 18, 2019 - 08:36 AM EDT / 2019.06.18 1236 UTC
Wind: from the NNW (330 degrees) at 5 MPH (4 KT):0
Visibility: 10 mile(s):0
Sky conditions: overcast
Temperature: 55 F (13 C)
Dew Point: 53 F (12 C)
Relative Humidity: 93%
Pressure (altimeter): 30.02 in. Hg (1016 hPa)
ob: KDTL 181236Z AUTO 33004KT 10SM OVC048 13/12 A3002 RMK AO2
cycle: 12

Station Type Date Time Source
KDTL TAF UTC NOAA

Error!

Example: see airport list